sensor_id;sensor_type;location;lat;lon;timestamp;pressure;altitude;pressure_sealevel;temperature;humidity
70133;BME280;57495;49.922;7.966;2024-01-15T00:00:37;98833.28;;;-3.09;100.00
70133;BME280;57495;49.922;7.966;2024-01-15T00:02:39;98833.91;;;-3.05;100.00
70133;BME280;57495;49.922;7.966;2024-01-15T00:04:41;98820.75;;;-3.04;100.00
70133;BME280;57495;49.922;7.966;2024-01-15T00:06:43;98825.91;;;-3.02;100.00
70133;BME280;57495;49.922;7.966;2024-01-15T00:08:44;98824.72;;;-2.97;100.00
70133;BME280;57495;49.922;7.966;2024-01-15T00:10:46;98821.34;;;-2.99;100.00
70133;BME280;57495;49.922;7.966;2024-01-15T00:12:47;98828.09;;;-2.95;100.00
70133;BME280;57495;49.922;7.966;2024-01-15T00:14:49;98816.13;;;-2.99;100.00
70133;BME280;57495;49.922;7.966;2024-01-15T00:16:49;98806.41;;;-2.97;100.00
70133;BME280;57495;49.922;7.966;2024-01-15T00:18:51;98801.94;;;-2.95;100.00
70133;BME280;57495;49.922;7.966;2024-01-15T00:20:54;98803.72;;;-2.95;100.00
70133;BME280;57495;49.922;7.966;2024-01-15T00:22:55;98808.03;;;-2.94;100.00
70133;BME280;57495;49.922;7.966;2024-01-15T00:24:57;98799.97;;;-2.91;100.00
70133;BME280;57495;49.922;7.966;2024-01-15T00:26:57;98797.44;;;-2.93;100.00
70133;BME280;57495;49.922;7.966;2024-01-15T00:28:58;98792.41;;;-2.96;100.00
70133;BME280;57495;49.922;7.966;2024-01-15T00:31:00;98797.28;;;-2.89;100.00
70133;BME280;57495;49.922;7.966;2024-01-15T00:33:01;98792.06;;;-2.89;100.00
70133;BME280;57495;49.922;7.966;2024-01-15T00:35:03;98795.41;;;-2.87;100.00
70133;BME280;57495;49.922;7.966;2024-01-15T00:37:06;98791.88;;;-2.86;100.00
70133;BME280;57495;49.922;7.966;2024-01-15T00:39:08;98779.16;;;-2.93;100.00
70133;BME280;57495;49.922;7.966;2024-01-15T00:41:10;98783.47;;;-2.92;100.00
70133;BME280;57495;49.922;7.966;2024-01-15T00:43:12;98773.66;;;-2.88;100.00
70133;BME280;57495;49.922;7.966;2024-01-15T00:45:14;98783.09;;;-2.85;100.00
70133;BME280;57495;49.922;7.966;2024-01-15T00:47:15;98777.19;;;-2.89;100.00
70133;BME280;57495;49.922;7.966;2024-01-15T00:49:19;98780.09;;;-2.94;100.00
70133;BME280;57495;49.922;7.966;2024-01-15T00:51:19;98780.75;;;-2.90;100.00
70133;BME280;57495;49.922;7.966;2024-01-15T00:53:22;98771.72;;;-2.84;100.00
70133;BME280;57495;49.922;7.966;2024-01-15T00:55:22;98768.53;;;-2.89;100.00
70133;BME280;57495;49.922;7.966;2024-01-15T00:57:24;98764.88;;;-2.87;100.00
70133;BME280;57495;49.922;7.966;2024-01-15T00:59:25;98764.78;;;-2.85;100.00
70133;BME280;57495;49.922;7.966;2024-01-15T01:01:26;98762.84;;;-2.82;100.00
70133;BME280;57495;49.922;7.966;2024-01-15T01:03:28;98769.09;;;-2.84;100.00
70133;BME280;57495;49.922;7.966;2024-01-15T01:05:29;98775.16;;;-2.84;100.00
70133;BME280;57495;49.922;7.966;2024-01-15T01:07:31;98769.09;;;-2.84;100.00
70133;BME280;57495;49.922;7.966;2024-01-15T01:09:33;98776.66;;;-2.80;100.00
70133;BME280;57495;49.922;7.966;2024-01-15T01:11:34;98765.19;;;-2.77;100.00
70133;BME280;57495;49.922;7.966;2024-01-15T01:13:35;98766.94;;;-2.78;100.00
70133;BME280;57495;49.922;7.966;2024-01-15T01:15:37;98759.97;;;-2.77;100.00
70133;BME280;57495;49.922;7.966;2024-01-15T01:17:38;98764.16;;;-2.75;100.00
70133;BME280;57495;49.922;7.966;2024-01-15T01:19:40;98769.31;;;-2.73;100.00
70133;BME280;57495;49.922;7.966;2024-01-15T01:21:40;98768.38;;;-2.72;100.00
70133;BME280;57495;49.922;7.966;2024-01-15T01:23:42;98761.28;;;-2.70;100.00
70133;BME280;57495;49.922;7.966;2024-01-15T01:25:45;98752.03;;;-2.76;100.00
70133;BME280;57495;49.922;7.966;2024-01-15T01:27:46;98748.97;;;-2.68;100.00
70133;BME280;57495;49.922;7.966;2024-01-15T01:29:46;98752.50;;;-2.69;100.00
70133;BME280;57495;49.922;7.966;2024-01-15T01:31:48;98750.91;;;-2.72;100.00
70133;BME280;57495;49.922;7.966;2024-01-15T01:33:50;98755.84;;;-2.67;100.00
70133;BME280;57495;49.922;7.966;2024-01-15T01:35:51;98748.97;;;-2.68;100.00
70133;BME280;57495;49.922;7.966;2024-01-15T01:37:53;98750.53;;;-2.65;100.00
70133;BME280;57495;49.922;7.966;2024-01-15T01:39:54;98761.75;;;-2.63;100.00
70133;BME280;57495;49.922;7.966;2024-01-15T01:41:57;98773.06;;;-2.63;100.00
70133;BME280;57495;49.922;7.966;2024-01-15T01:43:58;98768.19;;;-2.69;100.00
70133;BME280;57495;49.922;7.966;2024-01-15T01:46:00;98773.06;;;-2.63;100.00
70133;BME280;57495;49.922;7.966;2024-01-15T01:48:03;98763.44;;;-2.62;100.00
70133;BME280;57495;49.922;7.966;2024-01-15T01:50:06;98761.84;;;-2.65;100.00
70133;BME280;57495;49.922;7.966;2024-01-15T01:52:07;98759.78;;;-2.60;100.00
70133;BME280;57495;49.922;7.966;2024-01-15T01:54:10;98758.97;;;-2.60;100.00
70133;BME280;57495;49.922;7.966;2024-01-15T01:56:14;98763.25;;;-2.59;100.00
70133;BME280;57495;49.922;7.966;2024-01-15T01:58:18;98762.25;;;-2.57;100.00
70133;BME280;57495;49.922;7.966;2024-01-15T02:00:20;98766.63;;;-2.57;100.00
70133;BME280;57495;49.922;7.966;2024-01-15T02:02:22;98770.84;;;-2.55;100.00
70133;BME280;57495;49.922;7.966;2024-01-15T02:04:24;98771.66;;;-2.54;100.00
70133;BME280;57495;49.922;7.966;2024-01-15T02:06:26;98770.00;;;-2.55;100.00
70133;BME280;57495;49.922;7.966;2024-01-15T02:08:27;98761.03;;;-2.51;100.00
70133;BME280;57495;49.922;7.966;2024-01-15T02:10:28;98775.53;;;-2.45;100.00
70133;BME280;57495;49.922;7.966;2024-01-15T02:12:29;98760.00;;;-2.48;100.00
70133;BME280;57495;49.922;7.966;2024-01-15T02:14:31;98754.75;;;-2.48;100.00
70133;BME280;57495;49.922;7.966;2024-01-15T02:16:32;98747.66;;;-2.46;100.00
70133;BME280;57495;49.922;7.966;2024-01-15T02:18:41;98750.94;;;-2.43;100.00
70133;BME280;57495;49.922;7.966;2024-01-15T02:20:42;98750.84;;;-2.41;100.00
70133;BME280;57495;49.922;7.966;2024-01-15T02:22:45;98757.19;;;-2.45;100.00
70133;BME280;57495;49.922;7.966;2024-01-15T02:24:48;98754.97;;;-2.51;100.00
70133;BME280;57495;49.922;7.966;2024-01-15T02:26:49;98756.53;;;-2.49;100.00
70133;BME280;57495;49.922;7.966;2024-01-15T02:28:51;98751.00;;;-2.44;100.00
70133;BME280;57495;49.922;7.966;2024-01-15T02:30:52;98750.19;;;-2.45;100.00
70133;BME280;57495;49.922;7.966;2024-01-15T02:32:53;98738.31;;;-2.50;100.00
70133;BME280;57495;49.922;7.966;2024-01-15T02:34:54;98738.41;;;-2.52;100.00
70133;BME280;57495;49.922;7.966;2024-01-15T02:36:56;98736.34;;;-2.47;100.00
70133;BME280;57495;49.922;7.966;2024-01-15T02:38:57;98740.00;;;-2.49;100.00
70133;BME280;57495;49.922;7.966;2024-01-15T02:41:00;98733.81;;;-2.48;100.00
70133;BME280;57495;49.922;7.966;2024-01-15T02:43:01;98731.78;;;-2.43;100.00
70133;BME280;57495;49.922;7.966;2024-01-15T02:45:04;98729.44;;;-2.48;100.00
70133;BME280;57495;49.922;7.966;2024-01-15T02:47:05;98737.19;;;-2.46;100.00
70133;BME280;57495;49.922;7.966;2024-01-15T02:49:07;98736.09;;;-2.42;100.00
70133;BME280;57495;49.922;7.966;2024-01-15T02:51:08;98733.25;;;-2.39;100.00
70133;BME280;57495;49.922;7.966;2024-01-15T02:53:09;98728.41;;;-2.45;100.00
70133;BME280;57495;49.922;7.966;2024-01-15T02:55:11;98734.31;;;-2.42;100.00
70133;BME280;57495;49.922;7.966;2024-01-15T02:57:13;98737.00;;;-2.43;100.00
70133;BME280;57495;49.922;7.966;2024-01-15T02:59:14;98733.56;;;-2.44;100.00
70133;BME280;57495;49.922;7.966;2024-01-15T03:01:18;98731.03;;;-2.45;100.00
70133;BME280;57495;49.922;7.966;2024-01-15T03:03:19;98738.50;;;-2.39;100.00
70133;BME280;57495;49.922;7.966;2024-01-15T03:05:21;98731.78;;;-2.43;100.00
70133;BME280;57495;49.922;7.966;2024-01-15T03:07:21;98730.06;;;-2.44;100.00
70133;BME280;57495;49.922;7.966;2024-01-15T03:09:22;98731.78;;;-2.43;100.00
70133;BME280;57495;49.922;7.966;2024-01-15T03:11:24;98738.72;;;-2.42;100.00
70133;BME280;57495;49.922;7.966;2024-01-15T03:13:27;98741.03;;;-2.38;100.00
70133;BME280;57495;49.922;7.966;2024-01-15T03:15:28;98731.59;;;-2.40;100.00
70133;BME280;57495;49.922;7.966;2024-01-15T03:17:30;98736.09;;;-2.42;100.00
70133;BME280;57495;49.922;7.966;2024-01-15T03:19:34;98750.84;;;-2.41;100.00
70133;BME280;57495;49.922;7.966;2024-01-15T03:21:35;98738.03;;;-2.46;100.00
70133;BME280;57495;49.922;7.966;2024-01-15T03:23:36;98741.59;;;-2.47;100.00
70133;BME280;57495;49.922;7.966;2024-01-15T03:25:37;98743.16;;;-2.44;100.00
70133;BME280;57495;49.922;7.966;2024-01-15T03:27:38;98742.25;;;-2.43;100.00
70133;BME280;57495;49.922;7.966;2024-01-15T03:29:41;98733.47;;;-2.42;100.00
70133;BME280;57495;49.922;7.966;2024-01-15T03:31:42;98729.16;;;-2.43;100.00
70133;BME280;57495;49.922;7.966;2024-01-15T03:33:44;98730.28;;;-2.47;100.00
70133;BME280;57495;49.922;7.966;2024-01-15T03:35:45;98722.34;;;-2.46;100.00
70133;BME280;57495;49.922;7.966;2024-01-15T03:37:46;98725.97;;;-2.48;100.00
70133;BME280;57495;49.922;7.966;2024-01-15T03:39:48;98721.47;;;-2.46;100.00
70133;BME280;57495;49.922;7.966;2024-01-15T03:41:49;98720.38;;;-2.42;100.00
70133;BME280;57495;49.922;7.966;2024-01-15T03:43:51;98718.88;;;-2.46;100.00
70133;BME280;57495;49.922;7.966;2024-01-15T03:45:53;98720.38;;;-2.42;100.00
70133;BME280;57495;49.922;7.966;2024-01-15T03:47:55;98725.72;;;-2.44;100.00
70133;BME280;57495;49.922;7.966;2024-01-15T03:49:56;98714.03;;;-2.38;100.00
70133;BME280;57495;49.922;7.966;2024-01-15T03:51:58;98713.47;;;-2.43;100.00
70133;BME280;57495;49.922;7.966;2024-01-15T03:53:59;98708.78;;;-2.38;100.00
70133;BME280;57495;49.922;7.966;2024-01-15T03:56:01;98707.09;;;-2.39;100.00
70133;BME280;57495;49.922;7.966;2024-01-15T03:58:02;98707.84;;;-2.37;100.00
70133;BME280;57495;49.922;7.966;2024-01-15T04:00:05;98712.31;;;-2.39;100.00
70133;BME280;57495;49.922;7.966;2024-01-15T04:02:07;98713.81;;;-2.35;100.00
70133;BME280;57495;49.922;7.966;2024-01-15T04:04:08;98713.81;;;-2.35;100.00
70133;BME280;57495;49.922;7.966;2024-01-15T04:06:10;98712.97;;;-2.36;100.00
70133;BME280;57495;49.922;7.966;2024-01-15T04:08:11;98711.97;;;-2.33;100.00
70133;BME280;57495;49.922;7.966;2024-01-15T04:10:13;98710.63;;;-2.26;100.00
70133;BME280;57495;49.922;7.966;2024-01-15T04:12:14;98701.13;;;-2.27;100.00
70133;BME280;57495;49.922;7.966;2024-01-15T04:14:16;98693.09;;;-2.24;100.00
70133;BME280;57495;49.922;7.966;2024-01-15T04:16:17;98699.25;;;-2.25;100.00
70133;BME280;57495;49.922;7.966;2024-01-15T04:18:20;98693.16;;;-2.25;100.00
70133;BME280;57495;49.922;7.966;2024-01-15T04:20:22;98681.84;;;-2.26;100.00
70133;BME280;57495;49.922;7.966;2024-01-15T04:22:23;98685.41;;;-2.27;100.00
70133;BME280;57495;49.922;7.966;2024-01-15T04:24:24;98686.88;;;-2.23;100.00
70133;BME280;57495;49.922;7.966;2024-01-15T04:26:26;98689.88;;;-2.15;100.00
70133;BME280;57495;49.922;7.966;2024-01-15T04:28:26;98691.94;;;-2.20;100.00
70133;BME280;57495;49.922;7.966;2024-01-15T04:30:28;98688.38;;;-2.19;100.00
70133;BME280;57495;49.922;7.966;2024-01-15T04:32:28;98687.44;;;-2.18;100.00
70133;BME280;57495;49.922;7.966;2024-01-15T04:34:31;98693.44;;;-2.16;100.00
70133;BME280;57495;49.922;7.966;2024-01-15T04:36:38;98690.81;;;-2.16;100.00
70133;BME280;57495;49.922;7.966;2024-01-15T04:38:40;98695.13;;;-2.15;100.00
70133;BME280;57495;49.922;7.966;2024-01-15T04:40:41;98686.31;;;-2.14;100.00
70133;BME280;57495;49.922;7.966;2024-01-15T04:42:41;98692.38;;;-2.13;100.00
70133;BME280;57495;49.922;7.966;2024-01-15T04:44:43;98685.47;;;-2.14;100.00
70133;BME280;57495;49.922;7.966;2024-01-15T04:46:44;98682.56;;;-2.09;100.00
70133;BME280;57495;49.922;7.966;2024-01-15T04:48:45;98685.00;;;-2.06;100.00
70133;BME280;57495;49.922;7.966;2024-01-15T04:50:47;98678.06;;;-2.07;100.00
70133;BME280;57495;49.922;7.966;2024-01-15T04:52:49;98670.22;;;-2.07;100.00
70133;BME280;57495;49.922;7.966;2024-01-15T04:54:51;98666.84;;;-2.09;100.00
70133;BME280;57495;49.922;7.966;2024-01-15T04:56:52;98665.19;;;-2.10;100.00
70133;BME280;57495;49.922;7.966;2024-01-15T04:58:53;98666.28;;;-2.00;100.00
70133;BME280;57495;49.922;7.966;2024-01-15T05:00:54;98672.81;;;-2.07;100.00
70133;BME280;57495;49.922;7.966;2024-01-15T05:02:55;98678.06;;;-2.07;100.00
70133;BME280;57495;49.922;7.966;2024-01-15T05:04:57;98678.72;;;-2.04;100.00
70133;BME280;57495;49.922;7.966;2024-01-15T05:07:00;98678.63;;;-2.02;100.00
70133;BME280;57495;49.922;7.966;2024-01-15T05:09:01;98671.81;;;-2.05;100.00
70133;BME280;57495;49.922;7.966;2024-01-15T05:11:04;98661.03;;;-2.00;100.00
70133;BME280;57495;49.922;7.966;2024-01-15T05:13:05;98653.41;;;-2.03;100.00
70133;BME280;57495;49.922;7.966;2024-01-15T05:15:07;98654.88;;;-1.99;100.00
70133;BME280;57495;49.922;7.966;2024-01-15T05:17:07;98657.31;;;-1.96;100.00
70133;BME280;57495;49.922;7.966;2024-01-15T05:19:09;98654.88;;;-1.99;100.00
70133;BME280;57495;49.922;7.966;2024-01-15T05:21:09;98656.75;;;-2.01;100.00
70133;BME280;57495;49.922;7.966;2024-01-15T05:23:12;98647.44;;;-1.92;100.00
70133;BME280;57495;49.922;7.966;2024-01-15T05:25:13;98647.16;;;-1.88;100.00
70133;BME280;57495;49.922;7.966;2024-01-15T05:27:14;98651.19;;;-1.97;100.00
70133;BME280;57495;49.922;7.966;2024-01-15T05:29:15;98644.94;;;-1.94;100.00
70133;BME280;57495;49.922;7.966;2024-01-15T05:31:16;98659.63;;;-1.91;100.00
70133;BME280;57495;49.922;7.966;2024-01-15T05:33:17;98661.50;;;-1.93;100.00
70133;BME280;57495;49.922;7.966;2024-01-15T05:35:18;98665.25;;;-1.98;100.00
70133;BME280;57495;49.922;7.966;2024-01-15T05:37:19;98664.22;;;-1.95;100.00
70133;BME280;57495;49.922;7.966;2024-01-15T05:39:22;98669.44;;;-1.95;100.00
70133;BME280;57495;49.922;7.966;2024-01-15T05:41:23;98663.47;;;-1.97;100.00
70133;BME280;57495;49.922;7.966;2024-01-15T05:43:25;98669.34;;;-1.93;100.00
70133;BME280;57495;49.922;7.966;2024-01-15T05:45:26;98670.91;;;-1.91;100.00
70133;BME280;57495;49.922;7.966;2024-01-15T05:47:28;98668.22;;;-1.89;100.00
70133;BME280;57495;49.922;7.966;2024-01-15T05:49:29;98669.03;;;-1.89;100.00
70133;BME280;57495;49.922;7.966;2024-01-15T05:51:31;98662.22;;;-1.91;100.00
70133;BME280;57495;49.922;7.966;2024-01-15T05:53:32;98654.47;;;-1.93;100.00
70133;BME280;57495;49.922;7.966;2024-01-15T05:55:35;98660.66;;;-1.94;100.00
70133;BME280;57495;49.922;7.966;2024-01-15T05:57:37;98654.28;;;-1.90;100.00
70133;BME280;57495;49.922;7.966;2024-01-15T05:59:38;98649.97;;;-1.91;100.00
70133;BME280;57495;49.922;7.966;2024-01-15T06:01:40;98648.94;;;-1.88;100.00
70133;BME280;57495;49.922;7.966;2024-01-15T06:03:41;98644.00;;;-1.93;100.00
70133;BME280;57495;49.922;7.966;2024-01-15T06:05:43;98640.44;;;-1.92;100.00
70133;BME280;57495;49.922;7.966;2024-01-15T06:07:44;98639.31;;;-1.88;100.00
70133;BME280;57495;49.922;7.966;2024-01-15T06:09:45;98635.75;;;-1.87;100.00
70133;BME280;57495;49.922;7.966;2024-01-15T06:11:48;98628.81;;;-1.88;100.00
70133;BME280;57495;49.922;7.966;2024-01-15T06:13:49;98626.41;;;-1.91;100.00
70133;BME280;57495;49.922;7.966;2024-01-15T06:15:50;98626.03;;;-1.85;100.00
70133;BME280;57495;49.922;7.966;2024-01-15T06:17:52;98626.22;;;-1.88;100.00
70133;BME280;57495;49.922;7.966;2024-01-15T06:19:53;98633.97;;;-1.86;100.00
70133;BME280;57495;49.922;7.966;2024-01-15T06:21:55;98625.91;;;-1.83;100.00
70133;BME280;57495;49.922;7.966;2024-01-15T06:23:56;98626.53;;;-1.80;100.00
70133;BME280;57495;49.922;7.966;2024-01-15T06:25:58;98622.34;;;-1.82;100.00
70133;BME280;57495;49.922;7.966;2024-01-15T06:28:00;98630.13;;;-1.81;100.00
70133;BME280;57495;49.922;7.966;2024-01-15T06:30:03;98621.28;;;-1.80;100.00
70133;BME280;57495;49.922;7.966;2024-01-15T06:32:04;98635.34;;;-1.81;100.00
70133;BME280;57495;49.922;7.966;2024-01-15T06:34:06;98639.44;;;-1.77;100.00
70133;BME280;57495;49.922;7.966;2024-01-15T06:36:07;98653.66;;;-1.66;100.00
70133;BME280;57495;49.922;7.966;2024-01-15T06:38:09;98653.66;;;-1.66;100.00
70133;BME280;57495;49.922;7.966;2024-01-15T06:40:11;98658.66;;;-1.63;100.00
70133;BME280;57495;49.922;7.966;2024-01-15T06:42:12;98651.53;;;-1.61;100.00
70133;BME280;57495;49.922;7.966;2024-01-15T06:44:15;98637.94;;;-1.66;100.00
70133;BME280;57495;49.922;7.966;2024-01-15T06:46:19;98643.81;;;-1.63;100.00
70133;BME280;57495;49.922;7.966;2024-01-15T06:48:21;98637.69;;;-1.63;100.00
70133;BME280;57495;49.922;7.966;2024-01-15T06:50:21;98642.22;;;-1.65;100.00
70133;BME280;57495;49.922;7.966;2024-01-15T06:52:23;98637.09;;;-1.54;100.00
70133;BME280;57495;49.922;7.966;2024-01-15T06:54:24;98645.91;;;-1.55;100.00
70133;BME280;57495;49.922;7.966;2024-01-15T06:56:26;98631.34;;;-1.59;100.00
70133;BME280;57495;49.922;7.966;2024-01-15T06:58:28;98629.47;;;-1.57;100.00
70133;BME280;57495;49.922;7.966;2024-01-15T07:00:29;98623.47;;;-1.59;100.00
70133;BME280;57495;49.922;7.966;2024-01-15T07:02:31;98622.72;;;-1.61;100.00
70133;BME280;57495;49.922;7.966;2024-01-15T07:04:32;98623.91;;;-1.52;100.00
70133;BME280;57495;49.922;7.966;2024-01-15T07:06:33;98632.50;;;-1.50;100.00
70133;BME280;57495;49.922;7.966;2024-01-15T07:08:35;98632.41;;;-1.49;100.00
70133;BME280;57495;49.922;7.966;2024-01-15T07:10:36;98639.94;;;-1.57;100.00
70133;BME280;57495;49.922;7.966;2024-01-15T07:12:38;98639.94;;;-1.57;100.00
70133;BME280;57495;49.922;7.966;2024-01-15T07:14:39;98628.41;;;-1.54;100.00
70133;BME280;57495;49.922;7.966;2024-01-15T07:16:42;98634.16;;;-1.62;100.00
70133;BME280;57495;49.922;7.966;2024-01-15T07:18:43;98626.84;;;-1.57;100.00
70133;BME280;57495;49.922;7.966;2024-01-15T07:20:44;98627.75;;;-1.58;100.00
70133;BME280;57495;49.922;7.966;2024-01-15T07:22:45;98630.28;;;-1.57;100.00
70133;BME280;57495;49.922;7.966;2024-01-15T07:24:47;98629.97;;;-1.52;100.00
70133;BME280;57495;49.922;7.966;2024-01-15T07:26:48;98621.78;;;-1.60;100.00
70133;BME280;57495;49.922;7.966;2024-01-15T07:28:50;98626.84;;;-1.57;100.00
70133;BME280;57495;49.922;7.966;2024-01-15T07:30:50;98622.72;;;-1.61;100.00
70133;BME280;57495;49.922;7.966;2024-01-15T07:32:53;98630.19;;;-1.55;100.00
70133;BME280;57495;49.922;7.966;2024-01-15T07:34:55;98635.22;;;-1.52;100.00
70133;BME280;57495;49.922;7.966;2024-01-15T07:36:57;98631.88;;;-1.41;100.00
70133;BME280;57495;49.922;7.966;2024-01-15T07:38:58;98635.97;;;-1.50;100.00
70133;BME280;57495;49.922;7.966;2024-01-15T07:41:00;98624.03;;;-1.41;100.00
70133;BME280;57495;49.922;7.966;2024-01-15T07:43:01;98623.38;;;-1.45;100.00
70133;BME280;57495;49.922;7.966;2024-01-15T07:45:02;98625.19;;;-1.45;100.00
70133;BME280;57495;49.922;7.966;2024-01-15T07:47:04;98629.59;;;-1.46;100.00
70133;BME280;57495;49.922;7.966;2024-01-15T07:49:07;98632.75;;;-1.41;100.00
70133;BME280;57495;49.922;7.966;2024-01-15T07:51:09;98631.88;;;-1.41;100.00
70133;BME280;57495;49.922;7.966;2024-01-15T07:53:10;98624.13;;;-1.43;100.00
70133;BME280;57495;49.922;7.966;2024-01-15T07:55:12;98635.47;;;-1.42;100.00
70133;BME280;57495;49.922;7.966;2024-01-15T07:57:13;98645.94;;;-1.42;100.00
70133;BME280;57495;49.922;7.966;2024-01-15T07:59:14;98654.22;;;-1.36;100.00
70133;BME280;57495;49.922;7.966;2024-01-15T08:01:15;98640.28;;;-1.36;100.00
70133;BME280;57495;49.922;7.966;2024-01-15T08:03:17;98641.34;;;-1.39;100.00
70133;BME280;57495;49.922;7.966;2024-01-15T08:05:20;98644.91;;;-1.40;100.00
70133;BME280;57495;49.922;7.966;2024-01-15T08:07:21;98639.00;;;-1.43;100.00
70133;BME280;57495;49.922;7.966;2024-01-15T08:09:22;98636.09;;;-1.39;100.00
70133;BME280;57495;49.922;7.966;2024-01-15T08:11:23;98637.88;;;-1.39;100.00
70133;BME280;57495;49.922;7.966;2024-01-15T08:13:26;98622.25;;;-1.41;100.00
70133;BME280;57495;49.922;7.966;2024-01-15T08:15:28;98623.28;;;-1.43;100.00
70133;BME280;57495;49.922;7.966;2024-01-15T08:17:29;98617.63;;;-1.37;100.00
70133;BME280;57495;49.922;7.966;2024-01-15T08:19:30;98626.03;;;-1.32;100.00
70133;BME280;57495;49.922;7.966;2024-01-15T08:21:36;98618.06;;;-1.30;100.00
70133;BME280;57495;49.922;7.966;2024-01-15T08:23:37;98606.66;;;-1.29;100.00
70133;BME280;57495;49.922;7.966;2024-01-15T08:25:39;98609.47;;;-1.32;100.00
70133;BME280;57495;49.922;7.966;2024-01-15T08:27:40;98609.03;;;-1.26;100.00
70133;BME280;57495;49.922;7.966;2024-01-15T08:29:42;98608.75;;;-1.22;100.00
70133;BME280;57495;49.922;7.966;2024-01-15T08:31:45;98619.16;;;-1.20;100.00
70133;BME280;57495;49.922;7.966;2024-01-15T08:33:46;98613.38;;;-1.25;100.00
70133;BME280;57495;49.922;7.966;2024-01-15T08:35:46;98618.59;;;-1.25;100.00
70133;BME280;57495;49.922;7.966;2024-01-15T08:37:49;98611.56;;;-1.25;100.00
70133;BME280;57495;49.922;7.966;2024-01-15T08:39:51;98611.56;;;-1.25;100.00
70133;BME280;57495;49.922;7.966;2024-01-15T08:41:52;98606.31;;;-1.25;100.00
70133;BME280;57495;49.922;7.966;2024-01-15T08:43:54;98617.88;;;-1.27;100.00
70133;BME280;57495;49.922;7.966;2024-01-15T08:45:55;98628.06;;;-1.10;100.00
70133;BME280;57495;49.922;7.966;2024-01-15T08:47:56;98626.78;;;-1.17;100.00
70133;BME280;57495;49.922;7.966;2024-01-15T08:49:58;98626.50;;;-1.12;100.00
70133;BME280;57495;49.922;7.966;2024-01-15T08:52:00;98626.25;;;-1.09;100.00
70133;BME280;57495;49.922;7.966;2024-01-15T08:54:03;98632.44;;;-1.23;100.00
70133;BME280;57495;49.922;7.966;2024-01-15T08:56:04;98635.72;;;-1.20;100.00
70133;BME280;57495;49.922;7.966;2024-01-15T08:58:06;98631.28;;;-1.19;100.00
70133;BME280;57495;49.922;7.966;2024-01-15T09:00:08;98629.81;;;-1.23;100.00
70133;BME280;57495;49.922;7.966;2024-01-15T09:02:10;98625.50;;;-1.24;100.00
70133;BME280;57495;49.922;7.966;2024-01-15T09:04:11;98627.75;;;-1.18;100.00
70133;BME280;57495;49.922;7.966;2024-01-15T09:06:13;98623.84;;;-1.25;100.00
70133;BME280;57495;49.922;7.966;2024-01-15T09:08:15;98625.50;;;-1.24;100.00
70133;BME280;57495;49.922;7.966;2024-01-15T09:10:18;98630.47;;;-1.20;100.00
70133;BME280;57495;49.922;7.966;2024-01-15T09:12:20;98627.22;;;-1.23;100.00
70133;BME280;57495;49.922;7.966;2024-01-15T09:14:22;98631.72;;;-1.12;100.00
70133;BME280;57495;49.922;7.966;2024-01-15T09:16:24;98638.75;;;-1.13;100.00
70133;BME280;57495;49.922;7.966;2024-01-15T09:18:25;98632.75;;;-1.15;100.00
70133;BME280;57495;49.922;7.966;2024-01-15T09:20:27;98632.38;;;-1.09;100.00
70133;BME280;57495;49.922;7.966;2024-01-15T09:22:28;98630.69;;;-1.10;100.00
70133;BME280;57495;49.922;7.966;2024-01-15T09:24:30;98625.44;;;-1.10;100.00
70133;BME280;57495;49.922;7.966;2024-01-15T09:26:32;98629.66;;;-1.07;100.00
70133;BME280;57495;49.922;7.966;2024-01-15T09:28:33;98633.41;;;-1.11;100.00
70133;BME280;57495;49.922;7.966;2024-01-15T09:30:35;98630.28;;;-1.17;100.00
70133;BME280;57495;49.922;7.966;2024-01-15T09:32:35;98631.09;;;-1.16;100.00
70133;BME280;57495;49.922;7.966;2024-01-15T09:34:36;98637.28;;;-1.17;100.00
70133;BME280;57495;49.922;7.966;2024-01-15T09:36:39;98640.63;;;-1.15;100.00
70133;BME280;57495;49.922;7.966;2024-01-15T09:38:41;98631.84;;;-1.14;100.00
70133;BME280;57495;49.922;7.966;2024-01-15T09:40:43;98634.25;;;-1.11;100.00
70133;BME280;57495;49.922;7.966;2024-01-15T09:42:47;98633.09;;;-1.07;100.00
70133;BME280;57495;49.922;7.966;2024-01-15T09:44:49;98626.25;;;-1.09;100.00
70133;BME280;57495;49.922;7.966;2024-01-15T09:46:51;98629.41;;;-1.04;100.00
70133;BME280;57495;49.922;7.966;2024-01-15T09:48:52;98635.50;;;-1.04;100.00
70133;BME280;57495;49.922;7.966;2024-01-15T09:50:54;98635.50;;;-1.04;100.00
70133;BME280;57495;49.922;7.966;2024-01-15T09:52:57;98637.09;;;-1.01;100.00
70133;BME280;57495;49.922;7.966;2024-01-15T09:55:01;98634.25;;;-0.98;100.00
70133;BME280;57495;49.922;7.966;2024-01-15T09:57:03;98625.63;;;-1.00;100.00
70133;BME280;57495;49.922;7.966;2024-01-15T09:59:06;98627.31;;;-0.99;100.00
70133;BME280;57495;49.922;7.966;2024-01-15T10:01:08;98628.69;;;-1.06;100.00
70133;BME280;57495;49.922;7.966;2024-01-15T10:03:09;98625.88;;;-1.03;100.00
70133;BME280;57495;49.922;7.966;2024-01-15T10:05:11;98625.13;;;-1.05;100.00
70133;BME280;57495;49.922;7.966;2024-01-15T10:07:15;98627.53;;;-1.02;100.00
70133;BME280;57495;49.922;7.966;2024-01-15T10:09:17;98631.00;;;-1.02;100.00
70133;BME280;57495;49.922;7.966;2024-01-15T10:11:18;98625.34;;;-0.95;100.00
70133;BME280;57495;49.922;7.966;2024-01-15T10:13:21;98619.75;;;-0.91;100.00
70133;BME280;57495;49.922;7.966;2024-01-15T10:15:24;98617.91;;;-0.89;100.00
70133;BME280;57495;49.922;7.966;2024-01-15T10:17:26;98621.13;;;-0.85;100.00
70133;BME280;57495;49.922;7.966;2024-01-15T10:19:28;98624.59;;;-0.85;100.00
70133;BME280;57495;49.922;7.966;2024-01-15T10:21:32;98607.13;;;-0.47;100.00
70133;BME280;57495;49.922;7.966;2024-01-15T10:23:34;98606.06;;;-0.45;100.00
70133;BME280;57495;49.922;7.966;2024-01-15T10:25:36;98603.44;;;-0.57;100.00
70133;BME280;57495;49.922;7.966;2024-01-15T10:27:38;98604.63;;;-0.62;100.00
70133;BME280;57495;49.922;7.966;2024-01-15T10:29:41;98590.78;;;-0.64;100.00
70133;BME280;57495;49.922;7.966;2024-01-15T10:31:44;98594.22;;;-0.63;100.00
70133;BME280;57495;49.922;7.966;2024-01-15T10:33:45;98603.91;;;-0.64;100.00
70133;BME280;57495;49.922;7.966;2024-01-15T10:35:47;98596.75;;;-0.62;100.00